ADDS METAR Data

Data at: 2332 UTC 26 May 2018

METAR for:KLGA (New York/La Guardia, NY, US)
Text:KLGA 262251Z 14010KT 10SM FEW060 FEW090 SCT130 BKN250 29/19 A2979 RMK AO2 LTG DSNT S AND SW SLP088 CB DSNT S-SW T02940189
Temperature: 29.4°C ( 85°F)
Dewpoint: 18.9°C ( 66°F) [RH = 53%]
Pressure (altimeter):29.79 inches Hg (1008.9 mb) [Sea level pressure: 1008.8 mb]
Winds:from the SE (140 degrees) at 12 MPH (10 knots; 5.1 m/s)
Visibility:10 or more sm (16+ km)
Ceiling:25000 feet AGL
Clouds: few clouds at 6000 feet AGL, few clouds at 9000 feet AGL, scattered clouds at 13000 feet AGL, broken clouds at 25000 feet AGL